sensor_id;sensor_type;location;lat;lon;timestamp;pressure;altitude;pressure_sealevel;temperature;humidity
54628;BME280;40525;55.926;21.066;2022-12-24T00:00:35;100514.08;;;2.74;93.34
54628;BME280;40525;55.926;21.066;2022-12-24T00:03:02;100518.47;;;2.71;93.33
54628;BME280;40525;55.926;21.066;2022-12-24T00:05:28;100519.86;;;2.66;93.16
54628;BME280;40525;55.926;21.066;2022-12-24T00:07:55;100519.13;;;2.58;92.96
54628;BME280;40525;55.926;21.066;2022-12-24T00:10:21;100522.17;;;2.56;92.76
54628;BME280;40525;55.926;21.066;2022-12-24T00:12:47;100527.02;;;2.52;92.65
54628;BME280;40525;55.926;21.066;2022-12-24T00:15:14;100526.25;;;2.47;92.70
54628;BME280;40525;55.926;21.066;2022-12-24T00:17:40;100524.52;;;2.46;92.97
54628;BME280;40525;55.926;21.066;2022-12-24T00:20:08;100529.34;;;2.43;92.89
54628;BME280;40525;55.926;21.066;2022-12-24T00:22:34;100534.20;;;2.36;92.54
54628;BME280;40525;55.926;21.066;2022-12-24T00:25:01;100543.83;;;2.29;92.41
54628;BME280;40525;55.926;21.066;2022-12-24T00:27:28;100546.50;;;2.26;92.17
54628;BME280;40525;55.926;21.066;2022-12-24T00:29:54;100550.88;;;2.23;92.16
54628;BME280;40525;55.926;21.066;2022-12-24T00:32:21;100555.65;;;2.22;92.28
54628;BME280;40525;55.926;21.066;2022-12-24T00:34:47;100553.96;;;2.19;92.32
54628;BME280;40525;55.926;21.066;2022-12-24T00:37:15;100562.23;;;2.17;92.17
54628;BME280;40525;55.926;21.066;2022-12-24T00:39:41;100566.64;;;2.10;92.29
54628;BME280;40525;55.926;21.066;2022-12-24T00:42:08;100562.81;;;2.06;92.27
54628;BME280;40525;55.926;21.066;2022-12-24T00:44:34;100576.30;;;2.01;92.11
54628;BME280;40525;55.926;21.066;2022-12-24T00:47:01;100585.41;;;2.01;92.10
54628;BME280;40525;55.926;21.066;2022-12-24T00:49:27;100591.91;;;2.01;92.28
54628;BME280;40525;55.926;21.066;2022-12-24T00:51:54;100597.11;;;2.01;92.27
54628;BME280;40525;55.926;21.066;2022-12-24T00:54:21;100601.92;;;1.98;92.20
54628;BME280;40525;55.926;21.066;2022-12-24T00:56:47;100601.95;;;1.95;91.98
54628;BME280;40525;55.926;21.066;2022-12-24T00:59:14;100603.77;;;1.88;91.72
54628;BME280;40525;55.926;21.066;2022-12-24T01:01:40;100616.34;;;1.86;91.74
54628;BME280;40525;55.926;21.066;2022-12-24T01:04:07;100609.43;;;1.86;91.75
54628;BME280;40525;55.926;21.066;2022-12-24T01:06:52;100609.42;;;1.88;91.94
54628;BME280;40525;55.926;21.066;2022-12-24T01:09:18;100612.02;;;1.88;92.14
54628;BME280;40525;55.926;21.066;2022-12-24T01:11:45;100625.03;;;1.86;91.94
54628;BME280;40525;55.926;21.066;2022-12-24T01:14:11;100626.81;;;1.81;91.68
54628;BME280;40525;55.926;21.066;2022-12-24T01:16:38;100630.33;;;1.77;91.69
54628;BME280;40525;55.926;21.066;2022-12-24T01:19:04;100632.94;;;1.75;91.64
54628;BME280;40525;55.926;21.066;2022-12-24T01:21:31;100630.78;;;1.75;91.77
54628;BME280;40525;55.926;21.066;2022-12-24T01:23:57;100633.37;;;1.77;91.84
54628;BME280;40525;55.926;21.066;2022-12-24T01:26:24;100638.14;;;1.75;91.90
54628;BME280;40525;55.926;21.066;2022-12-24T01:28:51;100632.55;;;1.73;91.85
54628;BME280;40525;55.926;21.066;2022-12-24T01:31:18;100631.28;;;1.67;91.83
54628;BME280;40525;55.926;21.066;2022-12-24T01:33:47;100646.49;;;1.63;91.48
54628;BME280;40525;55.926;21.066;2022-12-24T01:36:14;100641.75;;;1.61;91.52
54628;BME280;40525;55.926;21.066;2022-12-24T01:38:40;100644.35;;;1.61;91.56
54628;BME280;40525;55.926;21.066;2022-12-24T01:41:16;100649.16;;;1.58;91.49
54628;BME280;40525;55.926;21.066;2022-12-24T01:44:27;100647.88;;;1.53;91.41
54628;BME280;40525;55.926;21.066;2022-12-24T01:47:26;100655.30;;;1.48;91.31
54628;BME280;40525;55.926;21.066;2022-12-24T01:49:56;100660.55;;;1.43;91.11
54628;BME280;40525;55.926;21.066;2022-12-24T01:52:30;100659.30;;;1.39;91.24
54628;BME280;40525;55.926;21.066;2022-12-24T01:55:07;100662.31;;;1.38;91.54
54628;BME280;40525;55.926;21.066;2022-12-24T01:57:38;100664.92;;;1.36;91.49
54628;BME280;40525;55.926;21.066;2022-12-24T02:00:12;100671.03;;;1.31;91.10
54628;BME280;40525;55.926;21.066;2022-12-24T02:02:42;100674.98;;;1.26;91.10
54628;BME280;40525;55.926;21.066;2022-12-24T02:05:21;100677.58;;;1.25;90.96
54628;BME280;40525;55.926;21.066;2022-12-24T02:07:55;100684.97;;;1.24;90.91
54628;BME280;40525;55.926;21.066;2022-12-24T02:10:23;100685.83;;;1.21;90.89
54628;BME280;40525;55.926;21.066;2022-12-24T02:12:50;100689.77;;;1.18;90.91
54628;BME280;40525;55.926;21.066;2022-12-24T02:15:18;100701.06;;;1.14;90.87
54628;BME280;40525;55.926;21.066;2022-12-24T02:23:26;100701.52;;;1.10;91.05
54628;BME280;40525;55.926;21.066;2022-12-24T02:32:04;100713.27;;;0.98;90.73
54628;BME280;40525;55.926;21.066;2022-12-24T02:34:38;100710.27;;;0.97;90.70
54628;BME280;40525;55.926;21.066;2022-12-24T02:37:16;100706.38;;;0.95;90.80
54628;BME280;40525;55.926;21.066;2022-12-24T02:39:54;100711.13;;;0.93;90.72
54628;BME280;40525;55.926;21.066;2022-12-24T02:42:30;100720.70;;;0.88;90.63
54628;BME280;40525;55.926;21.066;2022-12-24T02:45:04;100718.14;;;0.82;90.36
54628;BME280;40525;55.926;21.066;2022-12-24T02:47:33;100722.04;;;0.80;90.48
54628;BME280;40525;55.926;21.066;2022-12-24T02:50:02;100719.00;;;0.81;90.56
54628;BME280;40525;55.926;21.066;2022-12-24T02:52:41;100725.49;;;0.77;90.41
54628;BME280;40525;55.926;21.066;2022-12-24T02:55:17;100727.23;;;0.74;90.30
54628;BME280;40525;55.926;21.066;2022-12-24T03:01:00;100728.57;;;0.72;90.30
54628;BME280;40525;55.926;21.066;2022-12-24T03:03:37;100734.66;;;0.62;90.48
54628;BME280;40525;55.926;21.066;2022-12-24T03:06:15;100734.66;;;0.62;90.48
54628;BME280;40525;55.926;21.066;2022-12-24T03:08:52;100743.73;;;0.64;90.03
54628;BME280;40525;55.926;21.066;2022-12-24T03:11:22;100747.22;;;0.61;90.01
54628;BME280;40525;55.926;21.066;2022-12-24T03:13:50;100742.91;;;0.57;90.01
54628;BME280;40525;55.926;21.066;2022-12-24T03:16:23;100742.91;;;0.54;90.11
54628;BME280;40525;55.926;21.066;2022-12-24T03:18:52;100743.36;;;0.52;89.96
54628;BME280;40525;55.926;21.066;2022-12-24T03:21:34;100742.91;;;0.51;90.06
54628;BME280;40525;55.926;21.066;2022-12-24T03:24:03;100748.55;;;0.52;90.21
54628;BME280;40525;55.926;21.066;2022-12-24T03:26:31;100748.55;;;0.49;90.20
54628;BME280;40525;55.926;21.066;2022-12-24T03:28:58;100749.88;;;0.46;90.12
54628;BME280;40525;55.926;21.066;2022-12-24T03:31:25;100757.22;;;0.42;89.91
54628;BME280;40525;55.926;21.066;2022-12-24T03:33:52;100763.73;;;0.37;89.69
54628;BME280;40525;55.926;21.066;2022-12-24T03:36:18;100769.80;;;0.34;89.76
54628;BME280;40525;55.926;21.066;2022-12-24T03:38:44;100769.35;;;0.30;89.67
54628;BME280;40525;55.926;21.066;2022-12-24T03:41:11;100771.53;;;0.26;89.59
54628;BME280;40525;55.926;21.066;2022-12-24T03:43:38;100781.05;;;0.27;89.75
54628;BME280;40525;55.926;21.066;2022-12-24T03:46:06;100776.73;;;0.23;89.52
54628;BME280;40525;55.926;21.066;2022-12-24T03:48:34;100785.81;;;0.20;89.65
54628;BME280;40525;55.926;21.066;2022-12-24T03:51:03;100781.50;;;0.16;89.80
54628;BME280;40525;55.926;21.066;2022-12-24T03:53:30;100792.28;;;0.17;89.92
54628;BME280;40525;55.926;21.066;2022-12-24T03:55:57;100788.42;;;0.14;89.75
54628;BME280;40525;55.926;21.066;2022-12-24T03:58:23;100799.22;;;0.09;89.73
54628;BME280;40525;55.926;21.066;2022-12-24T04:00:52;100802.25;;;0.07;89.73
54628;BME280;40525;55.926;21.066;2022-12-24T04:03:19;100802.69;;;0.03;89.69
54628;BME280;40525;55.926;21.066;2022-12-24T04:05:45;100808.30;;;-0.01;89.72
54628;BME280;40525;55.926;21.066;2022-12-24T04:08:12;100816.52;;;-0.01;89.50
54628;BME280;40525;55.926;21.066;2022-12-24T04:10:38;100810.91;;;-0.05;89.56
54628;BME280;40525;55.926;21.066;2022-12-24T04:13:05;100819.13;;;-0.07;89.36
54628;BME280;40525;55.926;21.066;2022-12-24T04:15:31;100832.06;;;-0.13;89.10
54628;BME280;40525;55.926;21.066;2022-12-24T04:17:58;100826.89;;;-0.16;89.29
54628;BME280;40525;55.926;21.066;2022-12-24T04:20:24;100830.78;;;-0.16;89.48
54628;BME280;40525;55.926;21.066;2022-12-24T04:22:51;100828.62;;;-0.18;89.56
54628;BME280;40525;55.926;21.066;2022-12-24T04:25:18;100821.27;;;-0.19;89.50
54628;BME280;40525;55.926;21.066;2022-12-24T04:27:45;100827.32;;;-0.22;89.49
54628;BME280;40525;55.926;21.066;2022-12-24T04:30:12;100825.16;;;-0.25;89.42
54628;BME280;40525;55.926;21.066;2022-12-24T04:32:38;100833.80;;;-0.26;89.47
54628;BME280;40525;55.926;21.066;2022-12-24T04:35:06;100834.24;;;-0.28;89.32
54628;BME280;40525;55.926;21.066;2022-12-24T04:37:33;100838.96;;;-0.32;89.36
54628;BME280;40525;55.926;21.066;2022-12-24T04:40:00;100844.58;;;-0.34;89.34
54628;BME280;40525;55.926;21.066;2022-12-24T04:42:26;100843.28;;;-0.34;89.31
54628;BME280;40525;55.926;21.066;2022-12-24T04:44:53;100842.41;;;-0.36;89.32
54628;BME280;40525;55.926;21.066;2022-12-24T04:47:20;100850.19;;;-0.36;89.37
54628;BME280;40525;55.926;21.066;2022-12-24T04:49:46;100857.95;;;-0.38;89.27
54628;BME280;40525;55.926;21.066;2022-12-24T04:52:13;100858.38;;;-0.40;89.26
54628;BME280;40525;55.926;21.066;2022-12-24T04:54:39;100858.84;;;-0.44;89.19
54628;BME280;40525;55.926;21.066;2022-12-24T04:57:06;100870.04;;;-0.46;88.94
54628;BME280;40525;55.926;21.066;2022-12-24T04:59:32;100864.43;;;-0.49;89.21
54628;BME280;40525;55.926;21.066;2022-12-24T05:01:59;100865.28;;;-0.50;89.21
54628;BME280;40525;55.926;21.066;2022-12-24T05:04:25;100867.87;;;-0.53;88.87
54628;BME280;40525;55.926;21.066;2022-12-24T05:06:52;100871.77;;;-0.53;88.99
54628;BME280;40525;55.926;21.066;2022-12-24T05:09:18;100870.02;;;-0.54;89.09
54628;BME280;40525;55.926;21.066;2022-12-24T05:11:45;100875.65;;;-0.53;89.11
54628;BME280;40525;55.926;21.066;2022-12-24T05:14:11;100881.27;;;-0.55;89.17
54628;BME280;40525;55.926;21.066;2022-12-24T05:16:38;100879.97;;;-0.55;89.08
54628;BME280;40525;55.926;21.066;2022-12-24T05:19:05;100885.98;;;-0.57;89.13
54628;BME280;40525;55.926;21.066;2022-12-24T05:21:31;100895.48;;;-0.58;88.92
54628;BME280;40525;55.926;21.066;2022-12-24T05:23:59;100890.30;;;-0.60;88.86
54628;BME280;40525;55.926;21.066;2022-12-24T05:26:45;100890.72;;;-0.62;88.89
54628;BME280;40525;55.926;21.066;2022-12-24T05:29:19;100887.70;;;-0.64;88.92
54628;BME280;40525;55.926;21.066;2022-12-24T05:31:46;100894.17;;;-0.66;88.75
54628;BME280;40525;55.926;21.066;2022-12-24T05:34:14;100901.92;;;-0.67;88.62
54628;BME280;40525;55.926;21.066;2022-12-24T05:36:42;100897.61;;;-0.70;88.67
54628;BME280;40525;55.926;21.066;2022-12-24T05:39:12;100900.19;;;-0.71;88.43
54628;BME280;40525;55.926;21.066;2022-12-24T05:41:41;100901.91;;;-0.73;88.60
54628;BME280;40525;55.926;21.066;2022-12-24T05:44:08;100908.81;;;-0.75;88.74
54628;BME280;40525;55.926;21.066;2022-12-24T05:46:35;100915.70;;;-0.77;88.75
54628;BME280;40525;55.926;21.066;2022-12-24T05:49:01;100913.55;;;-0.80;88.66
54628;BME280;40525;55.926;21.066;2022-12-24T05:51:28;100918.27;;;-0.81;88.64
54628;BME280;40525;55.926;21.066;2022-12-24T05:53:54;100913.08;;;-0.82;88.66
54628;BME280;40525;55.926;21.066;2022-12-24T05:56:22;100924.30;;;-0.82;88.66
54628;BME280;40525;55.926;21.066;2022-12-24T05:58:50;100922.15;;;-0.85;88.62
54628;BME280;40525;55.926;21.066;2022-12-24T06:01:19;100925.16;;;-0.87;88.45
54628;BME280;40525;55.926;21.066;2022-12-24T06:03:46;100935.05;;;-0.90;88.55
54628;BME280;40525;55.926;21.066;2022-12-24T06:06:21;100940.23;;;-0.90;88.64
54628;BME280;40525;55.926;21.066;2022-12-24T06:08:46;100944.98;;;-0.91;88.60
54628;BME280;40525;55.926;21.066;2022-12-24T06:11:15;100945.81;;;-0.93;88.54
54628;BME280;40525;55.926;21.066;2022-12-24T06:13:43;100951.43;;;-0.94;88.57
54628;BME280;40525;55.926;21.066;2022-12-24T06:16:12;100956.59;;;-0.95;88.63
54628;BME280;40525;55.926;21.066;2022-12-24T06:18:41;100963.06;;;-0.95;88.56
54628;BME280;40525;55.926;21.066;2022-12-24T06:21:08;100967.38;;;-0.96;88.59
54628;BME280;40525;55.926;21.066;2022-12-24T06:23:37;100973.85;;;-0.96;88.58
54628;BME280;40525;55.926;21.066;2022-12-24T06:26:06;100975.98;;;-0.97;88.48
54628;BME280;40525;55.926;21.066;2022-12-24T06:28:35;100970.39;;;-0.98;88.45
54628;BME280;40525;55.926;21.066;2022-12-24T06:31:09;100968.65;;;-1.02;88.38
54628;BME280;40525;55.926;21.066;2022-12-24T06:33:37;100967.34;;;-1.04;88.48
54628;BME280;40525;55.926;21.066;2022-12-24T06:36:08;100975.52;;;-1.03;88.47
54628;BME280;40525;55.926;21.066;2022-12-24T06:38:37;100980.72;;;-1.04;88.42
54628;BME280;40525;55.926;21.066;2022-12-24T06:41:06;100980.69;;;-1.07;88.35
54628;BME280;40525;55.926;21.066;2022-12-24T06:43:34;100985.84;;;-1.09;88.38
54628;BME280;40525;55.926;21.066;2022-12-24T06:46:01;100994.05;;;-1.09;88.33
54628;BME280;40525;55.926;21.066;2022-12-24T06:48:28;100995.74;;;-1.13;88.28
54628;BME280;40525;55.926;21.066;2022-12-24T06:50:55;100997.47;;;-1.13;88.27
54628;BME280;40525;55.926;21.066;2022-12-24T06:53:21;101006.95;;;-1.15;88.38
54628;BME280;40525;55.926;21.066;2022-12-24T06:55:48;101015.56;;;-1.15;88.28
54628;BME280;40525;55.926;21.066;2022-12-24T06:58:15;101017.72;;;-1.14;88.30
54628;BME280;40525;55.926;21.066;2022-12-24T07:00:41;101022.45;;;-1.17;88.20
54628;BME280;40525;55.926;21.066;2022-12-24T07:03:08;101031.05;;;-1.18;88.24
54628;BME280;40525;55.926;21.066;2022-12-24T07:05:34;101038.40;;;-1.19;88.21
54628;BME280;40525;55.926;21.066;2022-12-24T07:08:01;101045.72;;;-1.19;88.19
54628;BME280;40525;55.926;21.066;2022-12-24T07:10:27;101042.70;;;-1.21;88.12
54628;BME280;40525;55.926;21.066;2022-12-24T07:12:54;101045.69;;;-1.22;88.10
54628;BME280;40525;55.926;21.066;2022-12-24T07:15:20;101044.39;;;-1.25;87.99
54628;BME280;40525;55.926;21.066;2022-12-24T07:17:47;101041.77;;;-1.28;87.71
54628;BME280;40525;55.926;21.066;2022-12-24T07:20:14;101043.48;;;-1.30;87.71
54628;BME280;40525;55.926;21.066;2022-12-24T07:22:41;101051.69;;;-1.29;87.79
54628;BME280;40525;55.926;21.066;2022-12-24T07:25:09;101056.84;;;-1.30;87.88
54628;BME280;40525;55.926;21.066;2022-12-24T07:27:36;101059.88;;;-1.28;87.96
54628;BME280;40525;55.926;21.066;2022-12-24T07:30:04;101069.79;;;-1.27;87.99
54628;BME280;40525;55.926;21.066;2022-12-24T07:32:31;101075.83;;;-1.28;87.95
54628;BME280;40525;55.926;21.066;2022-12-24T07:34:58;101082.73;;;-1.29;88.02
54628;BME280;40525;55.926;21.066;2022-12-24T07:37:24;101090.50;;;-1.29;88.04
54628;BME280;40525;55.926;21.066;2022-12-24T07:39:51;101092.59;;;-1.33;87.98
54628;BME280;40525;55.926;21.066;2022-12-24T07:42:18;101096.09;;;-1.31;87.78
54628;BME280;40525;55.926;21.066;2022-12-24T07:44:44;101104.64;;;-1.35;87.48
54628;BME280;40525;55.926;21.066;2022-12-24T07:47:11;101109.38;;;-1.38;87.54
54628;BME280;40525;55.926;21.066;2022-12-24T07:49:38;101110.69;;;-1.36;87.86
54628;BME280;40525;55.926;21.066;2022-12-24T07:52:04;101115.45;;;-1.34;87.82
54628;BME280;40525;55.926;21.066;2022-12-24T07:54:31;101119.77;;;-1.31;87.75
54628;BME280;40525;55.926;21.066;2022-12-24T07:56:58;101110.31;;;-1.31;87.83
54628;BME280;40525;55.926;21.066;2022-12-24T07:59:24;101115.07;;;-1.29;87.85
54628;BME280;40525;55.926;21.066;2022-12-24T08:01:51;101118.10;;;-1.26;87.79
54628;BME280;40525;55.926;21.066;2022-12-24T08:04:17;101114.66;;;-1.24;87.81
54628;BME280;40525;55.926;21.066;2022-12-24T08:06:44;101120.72;;;-1.22;87.79
54628;BME280;40525;55.926;21.066;2022-12-24T08:09:10;101123.34;;;-1.19;87.77
54628;BME280;40525;55.926;21.066;2022-12-24T08:11:39;101129.42;;;-1.15;87.77
54628;BME280;40525;55.926;21.066;2022-12-24T08:14:05;101127.27;;;-1.12;87.72
54628;BME280;40525;55.926;21.066;2022-12-24T08:16:32;101134.64;;;-1.09;87.77
54628;BME280;40525;55.926;21.066;2022-12-24T08:18:58;101135.10;;;-1.05;87.75
54628;BME280;40525;55.926;21.066;2022-12-24T08:21:25;101133.39;;;-1.03;87.77
54628;BME280;40525;55.926;21.066;2022-12-24T08:23:51;101138.17;;;-0.99;87.72
54628;BME280;40525;55.926;21.066;2022-12-24T08:26:20;101133.88;;;-0.97;87.85
54628;BME280;40525;55.926;21.066;2022-12-24T08:28:47;101133.05;;;-0.94;87.83
54628;BME280;40525;55.926;21.066;2022-12-24T08:31:13;101138.27;;;-0.88;87.81
54628;BME280;40525;55.926;21.066;2022-12-24T08:33:40;101132.69;;;-0.85;87.78
54628;BME280;40525;55.926;21.066;2022-12-24T08:36:07;101137.88;;;-0.82;87.84
54628;BME280;40525;55.926;21.066;2022-12-24T08:38:34;101135.32;;;-0.79;87.77
54628;BME280;40525;55.926;21.066;2022-12-24T08:41:01;101140.95;;;-0.74;87.80
54628;BME280;40525;55.926;21.066;2022-12-24T08:43:29;101141.85;;;-0.71;87.81
54628;BME280;40525;55.926;21.066;2022-12-24T08:46:00;101147.92;;;-0.67;87.80
54628;BME280;40525;55.926;21.066;2022-12-24T08:48:30;101153.14;;;-0.64;87.91
54628;BME280;40525;55.926;21.066;2022-12-24T08:50:57;101155.77;;;-0.58;88.02
54628;BME280;40525;55.926;21.066;2022-12-24T08:53:24;101152.77;;;-0.54;88.11
54628;BME280;40525;55.926;21.066;2022-12-24T08:55:50;101158.84;;;-0.48;88.23
54628;BME280;40525;55.926;21.066;2022-12-24T08:58:17;101167.95;;;-0.43;88.26
54628;BME280;40525;55.926;21.066;2022-12-24T09:00:44;101161.50;;;-0.38;88.37
54628;BME280;40525;55.926;21.066;2022-12-24T09:03:13;101163.70;;;-0.33;88.43
54628;BME280;40525;55.926;21.066;2022-12-24T09:05:41;101165.02;;;-0.27;88.54
54628;BME280;40525;55.926;21.066;2022-12-24T09:08:08;101171.55;;;-0.23;88.60
54628;BME280;40525;55.926;21.066;2022-12-24T09:10:34;101171.11;;;-0.19;88.64
54628;BME280;40525;55.926;21.066;2022-12-24T09:13:01;101179.36;;;-0.12;88.90
54628;BME280;40525;55.926;21.066;2022-12-24T09:15:27;101183.70;;;-0.08;88.88
54628;BME280;40525;55.926;21.066;2022-12-24T09:17:54;101184.17;;;-0.01;88.99
54628;BME280;40525;55.926;21.066;2022-12-24T09:20:21;101191.16;;;0.08;89.21
54628;BME280;40525;55.926;21.066;2022-12-24T09:22:47;101189.03;;;0.15;89.50
54628;BME280;40525;55.926;21.066;2022-12-24T09:25:14;101193.36;;;0.23;89.67
54628;BME280;40525;55.926;21.066;2022-12-24T09:27:40;101202.92;;;0.27;89.63
54628;BME280;40525;55.926;21.066;2022-12-24T09:30:08;101205.52;;;0.31;89.64
54628;BME280;40525;55.926;21.066;2022-12-24T09:32:36;101206.86;;;0.41;89.87
54628;BME280;40525;55.926;21.066;2022-12-24T09:35:02;101214.68;;;0.50;90.08
54628;BME280;40525;55.926;21.066;2022-12-24T09:37:29;101217.70;;;0.52;90.06
54628;BME280;40525;55.926;21.066;2022-12-24T09:39:56;101223.36;;;0.60;90.43
54628;BME280;40525;55.926;21.066;2022-12-24T09:45:33;101230.29;;;0.68;90.30
54628;BME280;40525;55.926;21.066;2022-12-24T09:48:04;101229.48;;;0.78;90.51
54628;BME280;40525;55.926;21.066;2022-12-24T09:50:51;101234.70;;;0.89;90.75
54628;BME280;40525;55.926;21.066;2022-12-24T09:53:31;101230.81;;;1.00;90.93
54628;BME280;40525;55.926;21.066;2022-12-24T09:56:09;101234.73;;;1.05;90.79
54628;BME280;40525;55.926;21.066;2022-12-24T09:58:47;101238.62;;;1.09;90.83
54628;BME280;40525;55.926;21.066;2022-12-24T10:01:20;101252.05;;;1.13;90.76
54628;BME280;40525;55.926;21.066;2022-12-24T10:03:47;101258.14;;;1.22;90.73
54628;BME280;40525;55.926;21.066;2022-12-24T10:15:00;101259.01;;;1.36;90.67
54628;BME280;40525;55.926;21.066;2022-12-24T10:23:18;101277.19;;;1.42;90.65
54628;BME280;40525;55.926;21.066;2022-12-24T10:26:08;101269.86;;;1.45;90.60
54628;BME280;40525;55.926;21.066;2022-12-24T10:31:19;101285.42;;;1.40;90.54
54628;BME280;40525;55.926;21.066;2022-12-24T10:34:04;101288.91;;;1.41;90.47
54628;BME280;40525;55.926;21.066;2022-12-24T10:36:30;101288.45;;;1.38;90.41
54628;BME280;40525;55.926;21.066;2022-12-24T10:38:58;101285.00;;;1.33;89.82
54628;BME280;40525;55.926;21.066;2022-12-24T10:41:26;101292.36;;;1.33;90.09
54628;BME280;40525;55.926;21.066;2022-12-24T10:43:54;101295.39;;;1.33;90.22
54628;BME280;40525;55.926;21.066;2022-12-24T10:46:25;101297.13;;;1.35;90.40
54628;BME280;40525;55.926;21.066;2022-12-24T10:49:05;101295.38;;;1.36;90.40
54628;BME280;40525;55.926;21.066;2022-12-24T10:51:44;101290.19;;;1.36;90.31
54628;BME280;40525;55.926;21.066;2022-12-24T10:54:20;101302.33;;;1.37;90.17
54628;BME280;40525;55.926;21.066;2022-12-24T10:56:50;101298.41;;;1.40;90.10
54628;BME280;40525;55.926;21.066;2022-12-24T10:59:27;101296.70;;;1.41;89.99
54628;BME280;40525;55.926;21.066;2022-12-24T11:02:00;101292.37;;;1.41;90.15
54628;BME280;40525;55.926;21.066;2022-12-24T11:04:29;101289.77;;;1.43;90.08
54628;BME280;40525;55.926;21.066;2022-12-24T11:07:03;101294.08;;;1.42;90.00
54628;BME280;40525;55.926;21.066;2022-12-24T11:09:37;101292.38;;;1.43;90.02
54628;BME280;40525;55.926;21.066;2022-12-24T11:12:03;101300.58;;;1.42;89.77
54628;BME280;40525;55.926;21.066;2022-12-24T11:14:36;101298.86;;;1.47;89.87
54628;BME280;40525;55.926;21.066;2022-12-24T11:17:04;101301.48;;;1.52;89.91
54628;BME280;40525;55.926;21.066;2022-12-24T11:19:33;101295.84;;;1.52;89.85
54628;BME280;40525;55.926;21.066;2022-12-24T11:22:06;101301.91;;;1.54;89.79
54628;BME280;40525;55.926;21.066;2022-12-24T11:24:37;101302.78;;;1.52;89.51
54628;BME280;40525;55.926;21.066;2022-12-24T11:30:28;101307.98;;;1.52;89.40
54628;BME280;40525;55.926;21.066;2022-12-24T11:35:39;101317.92;;;1.55;89.25
54628;BME280;40525;55.926;21.066;2022-12-24T11:38:11;101321.39;;;1.51;88.67
54628;BME280;40525;55.926;21.066;2022-12-24T11:40:45;101325.72;;;1.45;88.89
54628;BME280;40525;55.926;21.066;2022-12-24T11:43:18;101327.88;;;1.45;89.14
54628;BME280;40525;55.926;21.066;2022-12-24T11:48:33;101324.42;;;1.51;89.10
54628;BME280;40525;55.926;21.066;2022-12-24T11:51:05;101333.54;;;1.54;89.03
54628;BME280;40525;55.926;21.066;2022-12-24T11:53:37;101330.92;;;1.55;89.14
54628;BME280;40525;55.926;21.066;2022-12-24T11:56:53;101348.27;;;1.56;89.01
54628;BME280;40525;55.926;21.066;2022-12-24T11:58:59;101356.05;;;1.55;89.04
54628;BME280;40525;55.926;21.066;2022-12-24T12:04:54;101353.91;;;1.58;88.91
54628;BME280;40525;55.926;21.066;2022-12-24T12:07:28;101354.75;;;1.61;89.01
54628;BME280;40525;55.926;21.066;2022-12-24T12:10:05;101360.84;;;1.63;89.07
54628;BME280;40525;55.926;21.066;2022-12-24T12:12:36;101362.13;;;1.66;89.01
54628;BME280;40525;55.926;21.066;2022-12-24T12:18:00;101360.39;;;1.54;88.25
54628;BME280;40525;55.926;21.066;2022-12-24T12:20:43;101367.30;;;1.49;87.83
54628;BME280;40525;55.926;21.066;2022-12-24T12:23:25;101372.92;;;1.46;88.28
54628;BME280;40525;55.926;21.066;2022-12-24T12:26:09;101371.20;;;1.45;88.28
54628;BME280;40525;55.926;21.066;2022-12-24T12:28:46;101375.96;;;1.51;88.46
54628;BME280;40525;55.926;21.066;2022-12-24T12:34:09;101375.97;;;1.53;88.14
54628;BME280;40525;55.926;21.066;2022-12-24T12:36:42;101371.65;;;1.50;88.07
54628;BME280;40525;55.926;21.066;2022-12-24T12:39:20;101374.23;;;1.44;87.86
54628;BME280;40525;55.926;21.066;2022-12-24T12:50:29;101401.50;;;1.41;87.55
54628;BME280;40525;55.926;21.066;2022-12-24T12:56:20;101418.83;;;1.45;87.80
54628;BME280;40525;55.926;21.066;2022-12-24T13:21:44;101427.09;;;1.52;86.95
54628;BME280;40525;55.926;21.066;2022-12-24T13:24:27;101430.54;;;1.51;86.78
54628;BME280;40525;55.926;21.066;2022-12-24T13:29:59;101441.83;;;1.52;86.75
54628;BME280;40525;55.926;21.066;2022-12-24T13:32:45;101449.61;;;1.50;86.65
54628;BME280;40525;55.926;21.066;2022-12-24T13:38:28;101460.40;;;1.39;86.43
54628;BME280;40525;55.926;21.066;2022-12-24T13:40:43;101469.00;;;1.30;86.06
54628;BME280;40525;55.926;21.066;2022-12-24T13:43:11;101471.98;;;1.16;86.05
54628;BME280;40525;55.926;21.066;2022-12-24T13:45:41;101468.52;;;1.14;86.29
54628;BME280;40525;55.926;21.066;2022-12-24T13:50:51;101477.14;;;1.11;86.65
54628;BME280;40525;55.926;21.066;2022-12-24T13:53:27;101479.31;;;1.10;86.77
54628;BME280;40525;55.926;21.066;2022-12-24T13:58:46;101485.75;;;1.01;86.45
54628;BME280;40525;55.926;21.066;2022-12-24T14:01:21;101492.64;;;0.97;86.41
54628;BME280;40525;55.926;21.066;2022-12-24T14:03:52;101499.95;;;0.90;86.43
54628;BME280;40525;55.926;21.066;2022-12-24T14:06:28;101501.23;;;0.86;86.49
54628;BME280;40525;55.926;21.066;2022-12-24T14:09:14;101511.55;;;0.80;86.45
54628;BME280;40525;55.926;21.066;2022-12-24T14:14:38;101514.09;;;0.70;86.40
54628;BME280;40525;55.926;21.066;2022-12-24T14:17:24;101520.97;;;0.65;86.32
54628;BME280;40525;55.926;21.066;2022-12-24T14:19:54;101521.33;;;0.58;86.24
54628;BME280;40525;55.926;21.066;2022-12-24T14:22:32;101524.28;;;0.49;86.08
54628;BME280;40525;55.926;21.066;2022-12-24T14:25:17;101528.13;;;0.43;86.16
54628;BME280;40525;55.926;21.066;2022-12-24T14:27:50;101528.91;;;0.35;86.22
54628;BME280;40525;55.926;21.066;2022-12-24T14:30:23;101532.31;;;0.30;86.36
54628;BME280;40525;55.926;21.066;2022-12-24T14:32:54;101542.22;;;0.26;86.48
54628;BME280;40525;55.926;21.066;2022-12-24T14:35:38;101539.61;;;0.24;86.59
54628;BME280;40525;55.926;21.066;2022-12-24T14:38:06;101539.17;;;0.25;86.76
54628;BME280;40525;55.926;21.066;2022-12-24T14:40:39;101553.44;;;0.25;86.63